Time;durP1;ratioP1;P1;durP2;ratioP2;P2;SDS_P1;SDS_P2;PMS_P1;PMS_P2;Temp;Humidity;BMP_temperature;BMP_pressure;BME280_temperature;BME280_humidity;BME280_pressure;Samples;Min_cycle;Max_cycle;Signal;HPM_P1;HPM_P2
2023/02/25 00:01:59;;;;;;;7.57;1.35;;;15.50;70.10;;;;;;4158892;28;20094;-66
2023/02/25 00:04:44;;;;;;;6.70;1.10;;;15.50;69.40;;;;;;4159246;28;20061;-66
2023/02/25 00:07:27;;;;;;;5.70;1.48;;;15.50;69.80;;;;;;4175277;28;20056;-66
2023/02/25 00:10:11;;;;;;;5.18;1.00;;;15.60;70.10;;;;;;4174965;28;20086;-66
2023/02/25 00:12:52;;;;;;;3.95;1.35;;;15.50;69.60;;;;;;4175163;28;20052;-66
2023/02/25 00:15:33;;;;;;;4.70;1.77;;;15.60;69.30;;;;;;4173424;28;20119;-66
2023/02/25 00:18:16;;;;;;;3.40;1.08;;;15.60;68.60;;;;;;4162821;28;20044;-65
2023/02/25 00:20:56;;;;;;;3.70;1.20;;;15.70;68.40;;;;;;4162965;28;20064;-66
2023/02/25 00:23:38;;;;;;;5.07;1.25;;;15.70;68.30;;;;;;4175046;28;20048;-66
2023/02/25 00:26:19;;;;;;;6.03;1.33;;;15.70;67.90;;;;;;4146307;28;20067;-66
2023/02/25 00:29:00;;;;;;;6.43;1.42;;;15.70;68.50;;;;;;4158285;28;20065;-65
2023/02/25 00:31:41;;;;;;;5.07;1.48;;;15.70;68.40;;;;;;4149272;28;20051;-65
2023/02/25 00:34:25;;;;;;;4.32;1.10;;;15.70;68.40;;;;;;4162934;28;20118;-66
2023/02/25 00:37:06;;;;;;;3.90;1.33;;;15.70;67.80;;;;;;4174935;28;20048;-66
2023/02/25 00:39:47;;;;;;;4.25;1.20;;;15.70;66.60;;;;;;4174942;28;20122;-66
2023/02/25 00:42:27;;;;;;;2.70;0.93;;;15.80;68.20;;;;;;4174514;28;20056;-65
2023/02/25 00:45:11;;;;;;;3.00;1.20;;;15.70;68.20;;;;;;4165256;28;20060;-65
2023/02/25 00:47:52;;;;;;;3.17;1.10;;;15.80;68.40;;;;;;4158353;28;20060;-65
2023/02/25 00:50:35;;;;;;;4.88;0.90;;;15.80;68.20;;;;;;4157456;28;20057;-65
2023/02/25 00:53:16;;;;;;;2.50;0.93;;;15.80;68.40;;;;;;4146160;28;20188;-66
2023/02/25 00:56:00;;;;;;;3.55;1.02;;;15.80;67.00;;;;;;4146301;28;20056;-66
2023/02/25 00:58:42;;;;;;;1.45;0.65;;;15.80;67.80;;;;;;4153488;28;20047;-66
2023/02/25 01:01:26;;;;;;;0.98;0.50;;;15.80;68.10;;;;;;4176324;28;20130;-65
2023/02/25 01:04:08;;;;;;;3.03;0.70;;;15.90;68.30;;;;;;4174480;28;20056;-65
2023/02/25 01:06:53;;;;;;;4.25;0.98;;;15.90;68.50;;;;;;4160292;28;20504;-65
2023/02/25 01:09:33;;;;;;;1.40;0.77;;;15.90;68.40;;;;;;4161194;28;20515;-65
2023/02/25 01:12:15;;;;;;;3.30;0.50;;;15.90;69.50;;;;;;4148898;28;20563;-66
2023/02/25 01:14:56;;;;;;;1.77;0.60;;;15.90;68.90;;;;;;4162316;28;20492;-66
2023/02/25 01:17:38;;;;;;;1.00;0.45;;;15.90;68.80;;;;;;4160415;28;20123;-67
2023/02/25 01:20:21;;;;;;;3.70;0.95;;;15.90;68.90;;;;;;4149091;28;20053;-67
2023/02/25 01:23:03;;;;;;;2.28;0.98;;;15.90;69.20;;;;;;4161065;28;20056;-68
2023/02/25 01:25:44;;;;;;;4.50;0.90;;;15.90;69.30;;;;;;4161017;28;20199;-67
2023/02/25 01:28:27;;;;;;;6.03;0.77;;;15.80;69.30;;;;;;4161171;28;20180;-67
2023/02/25 01:31:15;;;;;;;2.22;1.13;;;15.80;69.50;;;;;;4161907;28;20091;-67
2023/02/25 01:33:58;;;;;;;3.22;1.20;;;15.70;70.30;;;;;;4160668;28;20060;-68
2023/02/25 01:36:40;;;;;;;7.65;1.52;;;15.70;70.10;;;;;;4160949;28;20122;-68
2023/02/25 01:39:24;;;;;;;4.63;1.23;;;15.80;70.40;;;;;;4148697;28;20176;-66
2023/02/25 01:42:13;;;;;;;4.65;1.23;;;15.80;71.30;;;;;;4160977;28;20052;-66
2023/02/25 01:45:27;;;;;;;8.40;1.60;;;15.80;69.90;;;;;;4162578;28;20040;-66
2023/02/25 01:48:13;;;;;;;7.68;2.30;;;15.90;69.60;;;;;;4177053;28;20047;-66
2023/02/25 01:51:01;;;;;;;10.18;2.40;;;15.90;69.30;;;;;;4164551;28;20059;-65
2023/02/25 01:53:46;;;;;;;14.50;3.22;;;15.90;69.30;;;;;;4177171;28;20079;-67
2023/02/25 01:56:31;;;;;;;12.52;3.53;;;15.90;69.20;;;;;;4176221;28;20048;-66
2023/02/25 01:59:12;;;;;;;11.73;2.88;;;15.90;68.70;;;;;;4148258;28;20416;-66
2023/02/25 02:01:53;;;;;;;15.50;3.40;;;15.90;68.00;;;;;;4148215;28;20500;-65
2023/02/25 02:04:38;;;;;;;13.55;3.83;;;15.90;67.70;;;;;;4174126;28;20632;-66
2023/02/25 02:07:22;;;;;;;13.80;4.05;;;15.90;68.30;;;;;;4176886;28;20063;-66
2023/02/25 02:10:03;;;;;;;15.90;3.03;;;15.90;68.50;;;;;;4176681;28;20052;-66
2023/02/25 02:12:47;;;;;;;10.02;2.55;;;15.80;67.00;;;;;;4163360;28;20059;-66
2023/02/25 02:15:32;;;;;;;10.27;2.40;;;15.90;65.70;;;;;;4160214;28;20156;-66
2023/02/25 02:18:13;;;;;;;8.20;1.85;;;15.90;68.00;;;;;;4160481;28;20049;-66
2023/02/25 02:21:11;;;;;;;5.95;1.58;;;15.90;67.20;;;;;;4160365;28;20053;-67
2023/02/25 02:24:26;;;;;;;2.70;0.82;;;15.90;66.40;;;;;;4169427;28;20055;-66
2023/02/25 02:27:10;;;;;;;6.43;1.38;;;15.90;66.30;;;;;;4153886;28;20048;-66
2023/02/25 02:30:16;;;;;;;2.40;1.20;;;15.90;67.10;;;;;;4160194;28;20052;-65
2023/02/25 02:33:04;;;;;;;5.07;1.65;;;15.90;67.60;;;;;;4158529;28;20111;-65
2023/02/25 02:35:55;;;;;;;2.83;1.30;;;15.90;67.40;;;;;;4159822;28;20052;-67
2023/02/25 02:38:46;;;;;;;4.50;1.05;;;15.80;66.90;;;;;;4159702;28;20168;-66
2023/02/25 02:41:33;;;;;;;3.90;0.93;;;15.80;67.10;;;;;;4159567;28;20052;-64
2023/02/25 02:44:19;;;;;;;2.47;0.93;;;15.80;66.60;;;;;;4147310;28;20607;-65
2023/02/25 02:47:04;;;;;;;4.88;1.50;;;15.80;68.50;;;;;;4147549;28;20060;-69
2023/02/25 02:49:51;;;;;;;8.70;1.60;;;15.80;66.80;;;;;;4159387;28;20123;-67
2023/02/25 02:52:36;;;;;;;2.83;0.82;;;15.80;66.70;;;;;;4147446;28;20056;-66
2023/02/25 02:55:21;;;;;;;2.72;0.50;;;15.70;65.70;;;;;;4160500;28;20118;-67
2023/02/25 02:58:10;;;;;;;3.05;0.70;;;15.70;65.50;;;;;;4147198;28;20567;-66
2023/02/25 03:00:56;;;;;;;4.78;1.25;;;15.70;64.30;;;;;;4159365;28;20143;-66
2023/02/25 03:03:41;;;;;;;2.53;0.95;;;15.80;65.40;;;;;;4158373;28;20088;-66
2023/02/25 03:06:28;;;;;;;4.80;1.15;;;15.80;66.80;;;;;;4159243;28;20056;-66
2023/02/25 03:09:14;;;;;;;3.65;1.30;;;15.90;67.40;;;;;;4159373;28;20053;-66
2023/02/25 03:11:56;;;;;;;6.40;1.63;;;15.90;67.50;;;;;;4159232;28;20431;-66
2023/02/25 03:14:37;;;;;;;4.35;1.52;;;15.90;67.70;;;;;;4146984;28;20052;-65
2023/02/25 03:17:21;;;;;;;3.67;1.42;;;16.00;68.00;;;;;;4147061;28;20044;-65
2023/02/25 03:20:12;;;;;;;4.97;1.00;;;16.20;66.70;;;;;;4159247;28;20048;-65
2023/02/25 03:22:58;;;;;;;6.82;1.20;;;16.20;65.30;;;;;;4147205;28;20055;-65
2023/02/25 03:25:46;;;;;;;7.60;1.73;;;16.20;65.30;;;;;;4159063;28;20462;-67
2023/02/25 03:28:31;;;;;;;4.00;1.30;;;16.20;65.90;;;;;;4159399;28;20091;-67
2023/02/25 03:31:20;;;;;;;9.90;1.20;;;16.30;67.00;;;;;;4158532;28;20056;-65
2023/02/25 03:34:06;;;;;;;4.53;1.33;;;16.30;67.00;;;;;;4147064;28;20098;-67
2023/02/25 03:36:53;;;;;;;5.00;1.00;;;16.30;67.00;;;;;;4146823;28;20071;-64
2023/02/25 03:39:40;;;;;;;5.32;1.50;;;16.20;67.10;;;;;;4158959;28;20060;-65
2023/02/25 03:42:27;;;;;;;3.47;0.73;;;16.20;67.20;;;;;;4158948;28;20499;-65
2023/02/25 03:45:11;;;;;;;2.90;1.05;;;16.30;67.20;;;;;;4171751;28;20371;-65
2023/02/25 03:47:52;;;;;;;2.45;1.20;;;16.20;67.10;;;;;;4175268;28;20056;-66
2023/02/25 03:50:37;;;;;;;4.60;0.80;;;16.20;67.20;;;;;;4163041;28;20122;-66
2023/02/25 03:53:20;;;;;;;1.58;0.70;;;16.20;67.10;;;;;;4174482;28;20067;-66
2023/02/25 03:56:09;;;;;;;3.33;0.75;;;16.10;64.20;;;;;;4162874;28;20056;-66
2023/02/25 03:58:53;;;;;;;2.47;0.70;;;16.00;63.40;;;;;;4162903;28;20059;-65
2023/02/25 04:01:35;;;;;;;0.93;0.50;;;15.90;65.30;;;;;;4173622;28;20215;-65
2023/02/25 04:04:16;;;;;;;0.88;0.32;;;15.90;64.80;;;;;;4174316;28;20052;-66
2023/02/25 04:06:57;;;;;;;1.70;0.38;;;15.90;65.40;;;;;;4175358;28;20097;-65
2023/02/25 04:09:38;;;;;;;0.93;0.73;;;15.90;66.00;;;;;;4162930;28;20078;-65
2023/02/25 04:12:21;;;;;;;1.17;0.40;;;15.90;65.50;;;;;;4162639;28;20051;-65
2023/02/25 04:15:03;;;;;;;0.82;0.28;;;15.80;66.20;;;;;;4162804;28;20404;-65
2023/02/25 04:17:45;;;;;;;;;;;15.80;66.70;;;;;;4172989;28;20056;-66
2023/02/25 04:20:28;;;;;;;1.27;0.40;;;15.70;67.50;;;;;;4175315;28;19994;-66
2023/02/25 04:23:12;;;;;;;1.05;0.20;;;15.60;68.10;;;;;;4162677;28;20080;-66
2023/02/25 04:25:53;;;;;;;0.57;0.30;;;15.70;68.70;;;;;;4174974;28;20052;-66
2023/02/25 04:28:35;;;;;;;1.75;0.30;;;15.80;68.70;;;;;;4175032;28;20052;-65
2023/02/25 04:31:16;;;;;;;3.75;0.60;;;15.80;68.60;;;;;;4174835;28;20137;-65
2023/02/25 04:33:57;;;;;;;1.98;0.82;;;15.90;68.20;;;;;;4174981;28;20508;-66
2023/02/25 04:39:48;;;;;;;0.75;0.40;;;16.00;67.60;;;;;;3921803;30;20536;-65
2023/02/25 04:42:29;;;;;;;2.47;0.70;;;16.00;67.80;;;;;;3930264;30;20552;-65
2023/02/25 04:45:12;;;;;;;2.47;0.55;;;16.00;68.30;;;;;;3929355;30;20063;-67
2023/02/25 04:47:56;;;;;;;3.03;0.60;;;16.00;67.80;;;;;;3929477;30;20063;-67
2023/02/25 04:50:37;;;;;;;1.27;0.73;;;16.00;67.90;;;;;;3929443;30;20141;-67
2023/02/25 04:53:18;;;;;;;3.78;0.50;;;15.80;67.80;;;;;;3929236;30;20054;-67
2023/02/25 04:56:02;;;;;;;2.92;0.60;;;15.80;68.40;;;;;;3929349;30;20059;-67
2023/02/25 04:58:43;;;;;;;1.83;0.70;;;15.80;68.90;;;;;;3929364;30;20063;-66
2023/02/25 05:01:25;;;;;;;1.83;0.57;;;15.80;68.90;;;;;;3918285;30;20063;-67
2023/02/25 05:04:06;;;;;;;6.30;0.80;;;15.80;68.90;;;;;;3918210;30;20059;-66
2023/02/25 05:06:47;;;;;;;6.18;1.15;;;15.80;68.80;;;;;;3928845;30;20141;-67
2023/02/25 05:09:28;;;;;;;3.28;0.93;;;15.80;68.90;;;;;;3929413;30;20808;-66
2023/02/25 05:12:09;;;;;;;4.63;1.00;;;15.90;69.00;;;;;;3928913;30;20141;-66
2023/02/25 05:14:49;;;;;;;6.72;1.35;;;15.90;68.90;;;;;;3929223;30;20301;-67
2023/02/25 05:17:32;;;;;;;2.28;0.82;;;15.90;68.80;;;;;;3929109;30;20058;-67
2023/02/25 05:20:14;;;;;;;3.28;0.73;;;15.90;68.70;;;;;;3928898;30;20063;-67
2023/02/25 05:22:56;;;;;;;4.28;1.45;;;16.00;68.20;;;;;;3929064;30;20059;-67
2023/02/25 05:25:40;;;;;;;4.80;1.40;;;16.10;68.30;;;;;;3928860;30;20107;-67
2023/02/25 05:28:21;;;;;;;3.90;1.20;;;16.20;67.60;;;;;;3917909;30;20408;-66
2023/02/25 05:31:04;;;;;;;2.90;1.10;;;16.20;67.50;;;;;;3928761;30;20082;-66
2023/02/25 05:33:47;;;;;;;6.43;0.85;;;16.30;66.30;;;;;;3928748;30;20129;-67
2023/02/25 05:36:28;;;;;;;2.70;1.20;;;16.30;66.60;;;;;;3928661;30;20492;-67
2023/02/25 05:39:13;;;;;;;5.53;1.33;;;16.30;66.40;;;;;;3928653;30;20605;-67
2023/02/25 05:41:54;;;;;;;5.38;1.13;;;16.20;65.70;;;;;;3928785;30;20074;-67
2023/02/25 05:44:35;;;;;;;8.50;1.70;;;16.20;66.00;;;;;;3928435;30;20404;-67
2023/02/25 05:47:16;;;;;;;7.85;1.00;;;16.20;66.20;;;;;;3928597;30;20582;-67
2023/02/25 05:49:58;;;;;;;6.40;1.38;;;16.20;65.90;;;;;;3928775;30;20063;-66
2023/02/25 05:52:39;;;;;;;4.97;1.58;;;16.20;65.90;;;;;;3928613;30;20110;-66
2023/02/25 05:55:20;;;;;;;3.88;0.88;;;16.20;65.50;;;;;;3928670;30;20055;-66
2023/02/25 05:58:01;;;;;;;3.90;1.35;;;16.20;66.20;;;;;;3928597;30;20408;-66
2023/02/25 06:00:42;;;;;;;4.78;1.17;;;16.20;64.10;;;;;;3913919;30;20165;-65
2023/02/25 06:03:23;;;;;;;2.45;0.98;;;16.10;65.40;;;;;;3913932;30;20055;-66
2023/02/25 06:06:07;;;;;;;4.10;1.08;;;16.10;66.70;;;;;;3913866;30;20109;-67
2023/02/25 06:08:48;;;;;;;3.53;1.42;;;16.10;65.90;;;;;;3913702;30;20067;-67
2023/02/25 06:11:30;;;;;;;3.42;1.27;;;16.00;66.70;;;;;;3906456;30;20055;-67
2023/02/25 06:14:11;;;;;;;1.88;1.10;;;16.00;66.40;;;;;;3913912;30;20074;-68
2023/02/25 06:16:55;;;;;;;3.77;0.90;;;16.10;64.30;;;;;;3913597;30;20058;-67
2023/02/25 06:19:36;;;;;;;6.00;0.90;;;16.00;65.20;;;;;;3913738;30;20306;-66
2023/02/25 06:22:18;;;;;;;2.00;0.70;;;16.00;64.30;;;;;;3913592;30;20056;-67
2023/02/25 06:24:59;;;;;;;2.72;0.95;;;15.90;65.80;;;;;;3927545;30;20059;-66
2023/02/25 06:27:41;;;;;;;3.45;0.98;;;15.90;66.70;;;;;;3927879;30;20149;-68
2023/02/25 06:30:21;;;;;;;3.42;1.00;;;15.80;67.10;;;;;;3917234;30;20043;-68
2023/02/25 06:33:02;;;;;;;5.43;1.07;;;15.80;67.50;;;;;;3928036;30;20055;-68
2023/02/25 06:35:43;;;;;;;4.82;0.90;;;15.90;67.30;;;;;;3916717;30;20347;-68
2023/02/25 06:38:25;;;;;;;1.67;0.57;;;16.10;66.90;;;;;;3927594;30;20059;-67
2023/02/25 06:41:07;;;;;;;4.15;1.30;;;16.20;66.20;;;;;;3928002;30;20491;-67
2023/02/25 06:43:50;;;;;;;3.53;1.00;;;16.20;66.00;;;;;;3927355;30;20466;-66
2023/02/25 06:46:31;;;;;;;5.93;1.77;;;16.30;66.20;;;;;;3927366;30;20054;-66
2023/02/25 06:49:13;;;;;;;3.85;1.55;;;16.30;65.90;;;;;;3913021;30;20067;-66
2023/02/25 06:51:54;;;;;;;5.20;1.35;;;16.30;65.90;;;;;;3922491;30;20082;-67
2023/02/25 06:54:36;;;;;;;2.58;0.90;;;16.30;66.40;;;;;;3928012;30;20189;-68
2023/02/25 06:57:20;;;;;;;2.65;1.13;;;16.20;66.80;;;;;;3927639;30;20388;-67
2023/02/25 07:00:01;;;;;;;3.13;0.73;;;16.20;67.70;;;;;;3927589;30;20059;-65
2023/02/25 07:02:41;;;;;;;2.40;1.20;;;16.20;67.30;;;;;;3927591;30;20412;-66
2023/02/25 07:05:22;;;;;;;1.98;0.82;;;16.30;66.60;;;;;;3927531;30;20067;-66
2023/02/25 07:08:04;;;;;;;1.90;0.90;;;16.40;64.90;;;;;;3934067;30;20055;-66
2023/02/25 07:10:47;;;;;;;4.68;0.90;;;16.30;63.70;;;;;;3941816;30;20089;-65
2023/02/25 07:13:28;;;;;;;5.10;1.33;;;16.30;64.10;;;;;;3941920;30;20196;-67
2023/02/25 07:16:09;;;;;;;3.63;0.90;;;16.30;63.70;;;;;;3942156;30;20071;-65
2023/02/25 07:18:50;;;;;;;3.42;1.10;;;16.30;64.90;;;;;;3933909;30;20050;-66
2023/02/25 07:21:32;;;;;;;5.55;1.17;;;16.20;67.30;;;;;;3941860;30;20511;-66
2023/02/25 07:24:13;;;;;;;6.03;1.65;;;16.20;65.60;;;;;;3940169;30;20071;-68
2023/02/25 07:26:56;;;;;;;3.35;1.50;;;16.10;65.20;;;;;;3934598;30;20063;-69
2023/02/25 07:29:36;;;;;;;6.55;1.75;;;16.00;63.90;;;;;;3926821;30;20092;-67
2023/02/25 07:32:18;;;;;;;6.65;1.65;;;15.90;63.80;;;;;;3918580;30;20055;-67
2023/02/25 07:34:59;;;;;;;7.28;1.60;;;15.70;62.90;;;;;;3926865;30;20055;-68
2023/02/25 07:37:40;;;;;;;6.47;1.50;;;15.70;60.90;;;;;;3926875;30;20113;-68
2023/02/25 07:40:21;;;;;;;9.50;2.03;;;15.60;59.40;;;;;;3926717;30;20784;-67
2023/02/25 07:43:03;;;;;;;11.05;1.92;;;15.40;59.30;;;;;;3927040;30;20047;-67
2023/02/25 07:45:45;;;;;;;9.77;1.83;;;15.30;59.00;;;;;;3926676;30;20067;-68
2023/02/25 07:48:26;;;;;;;6.75;1.80;;;15.20;58.20;;;;;;3926715;30;20059;-68
2023/02/25 07:51:10;;;;;;;7.07;2.25;;;15.10;58.60;;;;;;3926887;30;20063;-68
2023/02/25 07:53:54;;;;;;;8.02;1.83;;;15.00;58.10;;;;;;3926642;30;20067;-68
2023/02/25 07:56:35;;;;;;;7.70;1.63;;;15.00;58.10;;;;;;3922740;30;20059;-70
2023/02/25 07:59:17;;;;;;;6.93;1.80;;;14.90;57.60;;;;;;3923387;30;20393;-68
2023/02/25 08:01:58;;;;;;;5.82;1.70;;;14.80;57.10;;;;;;3914492;30;20067;-68
2023/02/25 08:04:39;;;;;;;8.02;1.95;;;14.80;57.30;;;;;;3926488;30;20522;-66
2023/02/25 08:07:20;;;;;;;9.23;2.25;;;14.80;55.90;;;;;;3918118;30;20511;-66
2023/02/25 08:10:01;;;;;;;9.27;2.22;;;14.80;55.80;;;;;;3926542;30;20059;-67
2023/02/25 08:12:43;;;;;;;10.02;2.17;;;14.80;55.90;;;;;;3917980;30;20070;-67
2023/02/25 08:15:25;;;;;;;6.75;1.95;;;14.80;55.80;;;;;;3928024;30;20059;-68
2023/02/25 08:18:06;;;;;;;4.63;1.70;;;14.80;55.00;;;;;;3929070;30;20593;-67
2023/02/25 08:20:47;;;;;;;5.00;1.55;;;14.70;53.30;;;;;;3929671;30;20066;-66
2023/02/25 08:23:29;;;;;;;7.25;1.85;;;14.70;53.80;;;;;;3929768;30;20063;-67
2023/02/25 08:26:10;;;;;;;7.65;2.30;;;14.70;53.70;;;;;;3929582;30;20055;-67
2023/02/25 08:28:51;;;;;;;;;;;14.70;51.00;;;;;;3930232;30;20094;-66
2023/02/25 08:31:33;;;;;;;5.93;2.05;;;14.60;48.40;;;;;;3928485;30;20405;-66
2023/02/25 08:34:15;;;;;;;7.32;2.60;;;14.50;47.60;;;;;;3918422;30;20059;-67
2023/02/25 08:36:58;;;;;;;5.25;1.40;;;14.40;48.60;;;;;;3917484;30;20063;-66
2023/02/25 08:39:39;;;;;;;7.43;1.65;;;14.30;47.70;;;;;;3925232;30;20511;-66
2023/02/25 08:42:21;;;;;;;4.15;1.95;;;14.20;48.80;;;;;;3926756;30;20081;-66
2023/02/25 08:45:02;;;;;;;4.53;1.60;;;14.30;50.50;;;;;;3919197;30;20067;-67
2023/02/25 08:47:45;;;;;;;9.18;2.30;;;14.30;49.00;;;;;;3918640;30;20432;-67
2023/02/25 08:50:26;;;;;;;4.82;1.50;;;14.30;47.40;;;;;;3922276;30;20067;-66
2023/02/25 08:53:07;;;;;;;4.65;1.75;;;14.30;49.80;;;;;;3925904;30;20411;-65
2023/02/25 08:55:49;;;;;;;7.70;2.20;;;14.30;50.90;;;;;;3925365;30;20507;-66
2023/02/25 08:58:30;;;;;;;9.82;1.90;;;14.30;50.00;;;;;;3923545;30;20180;-66
2023/02/25 09:01:14;;;;;;;5.68;1.75;;;14.30;50.60;;;;;;3918006;30;20087;-66
2023/02/25 09:03:57;;;;;;;6.93;1.48;;;14.40;50.10;;;;;;3922914;30;20059;-66
2023/02/25 09:06:38;;;;;;;8.75;2.20;;;14.50;50.80;;;;;;3919631;30;20124;-65
2023/02/25 09:09:20;;;;;;;4.95;1.90;;;14.50;49.70;;;;;;3920771;30;20060;-67
2023/02/25 09:12:04;;;;;;;6.55;1.60;;;14.60;48.50;;;;;;3924541;30;20066;-67
2023/02/25 09:14:45;;;;;;;4.78;1.73;;;14.60;49.50;;;;;;3912777;30;20109;-66
2023/02/25 09:17:26;;;;;;;7.60;1.90;;;14.60;48.90;;;;;;3912582;30;20063;-66
2023/02/25 09:20:10;;;;;;;5.30;1.93;;;14.70;49.10;;;;;;3921284;30;20075;-66
2023/02/25 09:22:53;;;;;;;7.32;1.85;;;14.60;48.50;;;;;;3917073;30;20068;-66
2023/02/25 09:25:39;;;;;;;4.30;1.60;;;14.50;49.10;;;;;;3913981;30;20055;-66
2023/02/25 09:28:20;;;;;;;3.97;1.48;;;14.50;47.30;;;;;;3917152;30;20059;-66
2023/02/25 09:31:04;;;;;;;6.53;1.90;;;14.50;48.10;;;;;;3922278;30;20757;-67
2023/02/25 09:33:45;;;;;;;3.08;1.63;;;14.60;46.00;;;;;;3920704;30;20079;-68
2023/02/25 09:36:28;;;;;;;4.85;1.65;;;14.60;46.80;;;;;;3918247;30;20488;-67
2023/02/25 09:39:09;;;;;;;4.65;1.33;;;14.60;44.50;;;;;;3914352;30;20055;-67
2023/02/25 09:41:53;;;;;;;3.63;1.45;;;14.60;45.00;;;;;;3916688;30;20096;-66
2023/02/25 09:44:38;;;;;;;3.42;1.52;;;14.60;44.50;;;;;;3920542;30;20067;-67
2023/02/25 09:47:25;;;;;;;4.45;1.48;;;14.50;44.70;;;;;;3923594;30;20067;-67
2023/02/25 09:50:12;;;;;;;3.83;1.38;;;14.50;43.40;;;;;;3911395;30;20079;-67
2023/02/25 09:53:04;;;;;;;4.75;1.65;;;14.50;44.70;;;;;;3910053;30;20064;-67
2023/02/25 09:55:47;;;;;;;3.90;1.00;;;14.60;45.20;;;;;;3916400;30;20186;-67
2023/02/25 09:58:33;;;;;;;6.13;1.77;;;14.60;45.00;;;;;;3921240;30;20059;-68
2023/02/25 10:01:26;;;;;;;5.18;1.52;;;14.60;44.30;;;;;;3917894;30;20059;-67
2023/02/25 10:04:15;;;;;;;3.50;1.45;;;14.60;44.10;;;;;;3921596;30;20063;-67
2023/02/25 10:07:01;;;;;;;7.72;1.80;;;14.60;45.40;;;;;;3919283;30;21063;-68
2023/02/25 10:09:50;;;;;;;5.60;1.42;;;14.60;44.20;;;;;;3921718;30;20059;-67
2023/02/25 10:12:39;;;;;;;4.30;1.30;;;14.60;43.60;;;;;;3923634;30;20071;-68
2023/02/25 10:15:51;;;;;;;2.97;1.08;;;14.60;43.20;;;;;;3922017;30;20078;-67
2023/02/25 10:18:48;;;;;;;4.78;1.50;;;14.60;42.80;;;;;;3903098;30;20071;-67
2023/02/25 10:21:43;;;;;;;7.50;1.58;;;14.60;42.80;;;;;;3922465;30;20156;-67
2023/02/25 10:24:33;;;;;;;5.32;1.35;;;14.70;42.70;;;;;;3925439;30;20141;-67
2023/02/25 10:27:24;;;;;;;3.47;0.95;;;14.80;42.70;;;;;;3917098;30;20137;-67
2023/02/25 10:30:12;;;;;;;5.72;1.45;;;14.90;42.40;;;;;;3924702;30;20610;-67
2023/02/25 10:32:54;;;;;;;2.53;1.55;;;15.10;41.80;;;;;;3921511;30;20198;-67
2023/02/25 10:35:39;;;;;;;4.60;1.55;;;15.20;41.60;;;;;;3924582;30;20573;-68
2023/02/25 10:38:19;;;;;;;3.47;1.40;;;15.30;41.40;;;;;;3922145;30;20070;-66
2023/02/25 10:41:00;;;;;;;4.85;1.20;;;15.50;41.70;;;;;;3924776;30;20051;-66
2023/02/25 10:43:44;;;;;;;4.22;1.25;;;15.50;40.60;;;;;;3913343;30;20055;-67
2023/02/25 10:46:31;;;;;;;7.85;2.05;;;15.60;41.20;;;;;;3923591;30;20114;-67
2023/02/25 10:49:16;;;;;;;2.78;1.25;;;15.70;41.80;;;;;;3920155;30;20059;-66
2023/02/25 10:52:01;;;;;;;4.60;1.65;;;15.70;42.60;;;;;;3924892;30;20198;-66
2023/02/25 10:54:46;;;;;;;4.68;1.35;;;15.70;41.50;;;;;;3924940;30;20063;-66
2023/02/25 10:57:39;;;;;;;6.63;1.67;;;15.80;42.00;;;;;;3920399;30;20132;-66
2023/02/25 11:00:27;;;;;;;4.60;1.60;;;15.80;42.40;;;;;;3924413;30;20055;-66
2023/02/25 11:03:23;;;;;;;3.33;1.25;;;15.70;42.00;;;;;;3921222;30;20087;-66
2023/02/25 11:06:19;;;;;;;4.82;1.38;;;15.60;40.70;;;;;;3922584;30;20517;-65
2023/02/25 11:09:05;;;;;;;4.07;1.55;;;15.70;39.80;;;;;;3921231;30;20507;-66
2023/02/25 11:11:54;;;;;;;5.40;1.60;;;15.70;40.50;;;;;;3918998;30;20109;-65
2023/02/25 11:14:37;;;;;;;2.65;1.58;;;15.60;41.10;;;;;;3921878;30;20063;-66
2023/02/25 11:17:20;;;;;;;3.15;1.10;;;15.70;42.00;;;;;;3923435;30;20136;-66
2023/02/25 11:20:03;;;;;;;3.00;1.20;;;15.70;41.90;;;;;;3922823;30;20059;-66
2023/02/25 11:22:46;;;;;;;3.13;1.65;;;15.70;41.60;;;;;;3910933;30;20140;-66
2023/02/25 11:25:36;;;;;;;3.88;1.42;;;15.70;40.50;;;;;;3914245;30;20532;-66
2023/02/25 11:28:26;;;;;;;6.05;1.30;;;15.70;42.30;;;;;;3913649;30;20500;-66
2023/02/25 11:31:10;;;;;;;3.42;1.25;;;15.60;41.20;;;;;;3924658;30;20155;-66
2023/02/25 11:33:58;;;;;;;2.60;1.23;;;15.50;43.70;;;;;;3918911;30;20473;-66
2023/02/25 11:36:39;;;;;;;4.53;1.33;;;15.40;43.20;;;;;;3916870;30;20083;-66
2023/02/25 11:39:22;;;;;;;3.60;1.20;;;15.30;44.00;;;;;;3922439;30;20169;-67
2023/02/25 11:42:21;;;;;;;2.35;1.38;;;15.30;42.50;;;;;;3922285;30;20145;-66
2023/02/25 11:45:04;;;;;;;3.60;1.20;;;15.20;44.00;;;;;;3924007;30;20129;-67
2023/02/25 11:47:48;;;;;;;4.15;0.98;;;15.20;43.30;;;;;;3922358;30;20529;-67
2023/02/25 11:50:38;;;;;;;3.22;0.90;;;15.10;44.40;;;;;;3917873;30;20574;-68
2023/02/25 11:53:31;;;;;;;4.10;1.13;;;15.20;45.20;;;;;;3926863;30;20074;-66
2023/02/25 11:56:18;;;;;;;4.57;0.85;;;15.20;45.20;;;;;;3926498;30;20508;-66
2023/02/25 11:59:12;;;;;;;5.05;1.80;;;15.30;45.10;;;;;;3926821;30;20059;-67
2023/02/25 12:02:15;;;;;;;2.75;1.30;;;15.30;46.20;;;;;;3913851;30;20414;-66
2023/02/25 12:05:42;;;;;;;2.30;0.95;;;15.40;47.20;;;;;;3917652;30;20067;-67
2023/02/25 12:09:10;;;;;;;3.28;1.17;;;15.60;46.10;;;;;;3926034;30;20051;-67
2023/02/25 12:12:25;;;;;;;6.82;1.52;;;15.60;45.30;;;;;;3926445;30;20059;-68
2023/02/25 12:15:32;;;;;;;2.13;1.02;;;15.60;43.80;;;;;;3905665;30;20207;-67
2023/02/25 12:18:52;;;;;;;6.97;1.17;;;15.60;45.50;;;;;;3923054;30;20515;-67
2023/02/25 12:22:11;;;;;;;2.20;1.00;;;15.50;45.50;;;;;;3926475;30;20059;-66
2023/02/25 12:25:11;;;;;;;8.32;1.50;;;15.40;45.20;;;;;;3926455;30;20059;-66
2023/02/25 12:28:08;;;;;;;2.97;1.17;;;15.30;45.70;;;;;;3926049;30;20515;-67
2023/02/25 12:31:08;;;;;;;4.65;1.77;;;15.20;46.50;;;;;;3915570;30;20058;-66
2023/02/25 12:34:10;;;;;;;7.53;1.63;;;15.20;46.60;;;;;;3915164;30;20612;-67
2023/02/25 12:37:03;;;;;;;4.15;1.05;;;15.20;45.90;;;;;;3926172;30;20193;-67
2023/02/25 12:40:08;;;;;;;4.82;1.05;;;15.30;45.90;;;;;;3925136;30;20071;-67
2023/02/25 12:43:00;;;;;;;4.35;1.38;;;15.20;47.50;;;;;;3926054;30;20063;-66
2023/02/25 12:46:04;;;;;;;3.22;1.45;;;15.20;47.00;;;;;;3905300;30;20063;-65
2023/02/25 12:49:12;;;;;;;4.97;1.27;;;15.20;46.20;;;;;;3914211;30;20071;-67
2023/02/25 12:52:13;;;;;;;4.53;2.15;;;15.20;45.90;;;;;;3926380;30;20522;-66
2023/02/25 12:55:19;;;;;;;4.82;1.30;;;15.20;46.00;;;;;;3926455;30;20796;-67
2023/02/25 12:58:32;;;;;;;6.22;1.60;;;15.20;46.10;;;;;;3928270;30;20058;-66
2023/02/25 13:01:33;;;;;;;7.22;1.40;;;15.20;45.70;;;;;;3918083;30;20063;-67
2023/02/25 13:04:33;;;;;;;5.40;1.63;;;15.20;44.70;;;;;;3927614;30;20400;-67
2023/02/25 13:07:38;;;;;;;3.42;1.45;;;15.10;44.80;;;;;;3928043;30;20055;-67
2023/02/25 13:10:37;;;;;;;6.20;1.20;;;15.00;43.80;;;;;;3918610;30;20101;-70
2023/02/25 13:13:53;;;;;;;4.78;1.42;;;14.90;46.50;;;;;;3924321;30;20058;-69
2023/02/25 13:16:58;;;;;;;3.50;1.20;;;14.80;46.80;;;;;;3926967;30;20269;-68
2023/02/25 13:20:17;;;;;;;4.55;1.50;;;14.80;46.80;;;;;;3929072;30;20204;-70
2023/02/25 13:23:13;;;;;;;5.03;1.52;;;14.90;47.40;;;;;;3928802;30;20067;-69
2023/02/25 13:26:11;;;;;;;5.25;1.60;;;14.90;45.80;;;;;;3927800;30;20075;-68
2023/02/25 13:29:09;;;;;;;4.95;1.63;;;14.90;46.20;;;;;;3928225;30;20142;-66
2023/02/25 13:32:00;;;;;;;4.53;1.70;;;14.90;46.00;;;;;;3928629;30;20710;-66
2023/02/25 13:34:49;;;;;;;2.70;1.07;;;14.90;47.70;;;;;;3928388;30;20109;-66
2023/02/25 13:37:41;;;;;;;3.50;1.13;;;14.80;46.80;;;;;;3917069;30;20129;-67
2023/02/25 13:40:36;;;;;;;5.88;1.55;;;14.80;46.00;;;;;;3928009;30;20067;-67
2023/02/25 13:43:32;;;;;;;3.65;1.42;;;14.70;45.20;;;;;;3928256;30;20082;-67
2023/02/25 13:46:46;;;;;;;2.83;1.20;;;14.70;46.80;;;;;;3924122;30;20051;-67
2023/02/25 13:49:50;;;;;;;4.53;1.50;;;14.60;45.40;;;;;;3913525;30;20063;-66
2023/02/25 13:52:39;;;;;;;2.65;1.02;;;14.60;46.70;;;;;;3903287;30;20710;-66
2023/02/25 13:55:37;;;;;;;4.63;1.52;;;14.50;45.80;;;;;;3925130;30;20523;-67
2023/02/25 13:58:37;;;;;;;6.80;1.58;;;14.40;46.20;;;;;;3913318;30;20097;-69
2023/02/25 14:01:48;;;;;;;3.90;1.42;;;14.40;47.60;;;;;;3913276;30;20216;-69
2023/02/25 14:04:49;;;;;;;6.25;1.30;;;14.30;47.30;;;;;;3918631;30;20051;-67
2023/02/25 14:07:43;;;;;;;11.18;1.42;;;14.30;47.70;;;;;;3925191;30;20075;-66
2023/02/25 14:10:54;;;;;;;3.35;1.27;;;14.20;46.10;;;;;;3927878;30;20197;-66
2023/02/25 14:13:53;;;;;;;6.13;1.17;;;14.10;46.10;;;;;;3921720;30;20508;-65
2023/02/25 14:16:49;;;;;;;5.45;1.10;;;14.10;47.60;;;;;;3912942;30;20063;-69
2023/02/25 14:19:40;;;;;;;2.85;1.30;;;14.10;47.20;;;;;;3912962;30;20398;-71
2023/02/25 14:22:38;;;;;;;3.28;1.45;;;14.10;47.00;;;;;;3913073;30;20414;-68
2023/02/25 14:25:33;;;;;;;2.95;1.40;;;14.10;46.60;;;;;;3923437;30;20604;-68
2023/02/25 14:28:25;;;;;;;3.92;1.20;;;14.10;46.30;;;;;;3916801;30;20059;-67
2023/02/25 14:31:14;;;;;;;3.63;1.75;;;14.00;46.00;;;;;;3911465;30;20067;-68
2023/02/25 14:34:10;;;;;;;6.38;1.42;;;14.00;45.30;;;;;;3927144;30;20514;-67